Portada
METAR-TAF:

METAR-TAF

Aeroports :

Kasane, Botswana

latitud: 17-49S, longitud: 025-09E, altitud: 968 m

Observació

L'informe es va fer fa 4 hores i 59 minuts, a les 18:00 UTC
Vent 4 kt del Nord-Oest
Temperatura 25°C
Humitat 74%
Pressió 1010 hPa
Visibilitat 10 km o més
sense núvols per sota de 1500 mi sense presència de cumulonimbus.

METAR: FBKE 181800Z 32004KT CAVOK 25/20 Q1010

Hora: 00:59 (22:59 UTC)

Pronòstic

L'informe es va fer fa 10 hores i 59 minuts, a les 12:00 UTC
Pronòstic vàlid del 18 a les 15 UTC al 18 a les 24 UTC
Vent 7 kt del Sud
Visibilitat 10 km o més
Núvols disperses a una alçada de 3000 ft
Escasses núvols a una alçada de 3500 ft, Cumulonimbus.
Núvols disperses a una alçada de 7500 ft
Probabilitat 30% :
Temporalment
l' 18 a les 16 UTC al 18 a les 18 UTC
tempesta, pluja

TAF: FBKE 181200Z 1815/1824 19007KT 9999 SCT030 FEW035CB SCT075 PROB30 TEMPO 1816/1818 TSRA

Observacions i pronòstics meteorològics de més de 4000 aeroports (METAR i TAF).

Les estacions disponibles són els punts grocs i vermells al mapa.

Posi el ratolí al punt desitjat per veure el nom de l'estació.

Feu clic per veure les observacions i els pronòstics meteorològics.

Per canviar el mapa: feu clic els botons verds amb una creu de color negre per apropar; al botó verd amb un guió per allunyar la imatge; o en les fletxes verdes per a mapes adjacents.


METAR-TAF: